Time;durP1;ratioP1;P1;durP2;ratioP2;P2;SDS_P1;SDS_P2;PMS_P1;PMS_P2;Temp;Humidity;BMP_temperature;BMP_pressure;BME280_temperature;BME280_humidity;BME280_pressure;Samples;Min_cycle;Max_cycle;Signal;HPM_P1;HPM_P2
2022/10/30 00:01:42;;;;;;;24.98;16.00;;;;;;;12.70;100.00;100075.22;4992199;28;20022;-84
2022/10/30 00:04:07;;;;;;;27.73;16.67;;;;;;;12.67;100.00;100082.34;4992290;28;20026;-84
2022/10/30 00:06:32;;;;;;;24.38;16.95;;;;;;;12.64;100.00;100079.88;4992138;28;20022;-83
2022/10/30 00:08:58;;;;;;;28.67;17.08;;;;;;;12.64;100.00;100085.97;4974844;28;20026;-84
2022/10/30 00:11:23;;;;;;;23.98;16.10;;;;;;;12.64;100.00;100070.28;4992098;28;20034;-84
2022/10/30 00:13:48;;;;;;;25.38;16.38;;;;;;;12.59;100.00;100059.19;4992385;28;20137;-84
2022/10/30 00:16:14;;;;;;;24.20;15.38;;;;;;;12.64;100.00;100058.97;4992332;28;20030;-84
2022/10/30 00:18:40;;;;;;;22.10;15.25;;;;;;;12.61;100.00;100049.53;4992037;28;20113;-83
2022/10/30 00:21:17;;;;;;;22.30;15.00;;;;;;;12.63;100.00;100060.72;4974570;28;20488;-84
2022/10/30 00:23:50;;;;;;;22.10;14.93;;;;;;;12.57;100.00;100044.53;4991786;28;20381;-84
2022/10/30 00:26:16;;;;;;;19.45;14.43;;;;;;;12.56;100.00;100042.84;4991943;28;20042;-84
2022/10/30 00:28:42;;;;;;;23.33;14.82;;;;;;;12.53;100.00;100042.97;4991729;28;20469;-84
2022/10/30 00:31:07;;;;;;;19.73;14.45;;;;;;;12.61;100.00;100046.06;4993566;28;20028;-84
2022/10/30 00:33:33;;;;;;;24.58;15.43;;;;;;;12.55;100.00;100035.91;4995347;28;20120;-84
2022/10/30 00:35:59;;;;;;;20.98;15.25;;;;;;;12.58;100.00;100035.75;4995424;28;20014;-84
2022/10/30 00:38:24;;;;;;;21.10;15.80;;;;;;;12.60;100.00;100050.44;4977732;28;20030;-84
2022/10/30 00:40:49;;;;;;;19.48;14.88;;;;;;;12.57;100.00;100041.91;4995412;28;20026;-84
2022/10/30 00:43:36;;;;;;;22.15;15.43;;;;;;;12.55;100.00;100036.75;4995378;28;20102;-84
2022/10/30 00:46:39;;;;;;;25.17;16.25;;;;;;;12.55;100.00;100047.19;4977806;28;20022;-85
2022/10/30 00:49:12;;;;;;;20.58;15.55;;;;;;;12.49;100.00;100045.72;4995127;28;20029;-84
2022/10/30 00:51:44;;;;;;;23.60;16.40;;;;;;;12.48;100.00;100046.66;4995018;28;20038;-84
2022/10/30 00:54:11;;;;;;;28.42;16.65;;;;;;;12.45;100.00;100051.19;4994928;28;20039;-84
2022/10/30 00:56:37;;;;;;;23.42;15.38;;;;;;;12.44;100.00;100042.50;4994894;28;20026;-84
2022/10/30 00:59:07;;;;;;;22.25;14.95;;;;;;;12.40;100.00;100027.91;4995099;28;20109;-84
2022/10/30 01:01:36;;;;;;;21.90;15.18;;;;;;;12.36;100.00;100025.50;4994668;28;20028;-83
2022/10/30 01:04:04;;;;;;;22.73;14.52;;;;;;;12.31;100.00;100009.22;4995008;28;20030;-83
2022/10/30 01:06:32;;;;;;;22.95;14.52;;;;;;;12.35;100.00;100024.66;4994579;28;20393;-83
2022/10/30 01:08:58;;;;;;;26.45;15.15;;;;;;;12.28;100.00;100025.03;4994885;28;20122;-83
2022/10/30 01:11:24;;;;;;;21.05;14.95;;;;;;;12.26;100.00;100021.63;4994577;28;20478;-83
2022/10/30 01:13:52;;;;;;;22.73;14.77;;;;;;;12.24;100.00;100032.16;4994746;28;20076;-83
2022/10/30 01:16:55;;;;;;;16.80;13.98;;;;;;;12.26;100.00;100051.19;4994588;28;20361;-83
2022/10/30 01:19:35;;;;;;;24.52;16.30;;;;;;;12.20;100.00;100038.44;4994653;28;20146;-83
2022/10/30 01:22:34;;;;;;;29.60;18.58;;;;;;;12.18;100.00;100029.84;4977118;28;20041;-83
2022/10/30 01:25:02;;;;;;;28.15;17.60;;;;;;;12.15;100.00;100030.81;4994604;28;20386;-83
2022/10/30 01:27:38;;;;;;;27.98;17.83;;;;;;;12.12;100.00;100024.91;4994431;28;20101;-83
2022/10/30 01:30:32;;;;;;;25.83;17.48;;;;;;;12.09;100.00;100035.47;4994530;28;20514;-83
2022/10/30 01:33:13;;;;;;;26.30;18.33;;;;;;;12.04;100.00;100040.06;4976870;28;20026;-83
2022/10/30 01:35:54;;;;;;;23.67;16.55;;;;;;;12.00;100.00;100034.13;4994282;28;20500;-83
2022/10/30 01:38:25;;;;;;;27.02;16.88;;;;;;;12.03;100.00;100038.38;4994659;28;20019;-83
2022/10/30 01:40:50;;;;;;;21.65;15.18;;;;;;;11.99;100.00;100037.69;4994294;28;20034;-83
2022/10/30 01:43:16;;;;;;;25.70;15.88;;;;;;;11.97;100.00;100037.75;4993095;28;20105;-83
2022/10/30 01:45:41;;;;;;;23.73;14.85;;;;;;;11.98;100.00;100036.84;4994056;28;20023;-83
2022/10/30 01:48:26;;;;;;;21.35;15.30;;;;;;;11.95;100.00;100033.50;4994238;28;20038;-83
2022/10/30 01:51:04;;;;;;;25.60;16.35;;;;;;;11.95;100.00;100041.34;4994144;28;20022;-83
2022/10/30 01:54:02;;;;;;;24.15;16.40;;;;;;;11.91;100.00;100037.19;4993567;28;20493;-83
2022/10/30 01:57:00;;;;;;;23.52;16.20;;;;;;;11.84;100.00;100020.97;4993849;28;20028;-83
2022/10/30 01:59:38;;;;;;;22.80;16.10;;;;;;;11.85;100.00;100021.81;4993710;28;20061;-83
2022/10/30 02:02:05;;;;;;;25.98;17.90;;;;;;;11.84;100.00;100031.41;4976322;28;20104;-83
2022/10/30 02:04:31;;;;;;;27.52;17.10;;;;;;;11.81;100.00;100026.28;4976075;28;20047;-83
2022/10/30 02:06:56;;;;;;;25.13;17.65;;;;;;;11.77;100.00;100027.34;4993930;28;20045;-83
2022/10/30 02:09:23;;;;;;;26.13;17.25;;;;;;;11.73;100.00;100028.41;4993752;28;20023;-83
2022/10/30 02:11:50;;;;;;;24.80;17.75;;;;;;;11.71;100.00;100032.81;4975886;28;20041;-82
2022/10/30 02:14:22;;;;;;;25.85;17.85;;;;;;;11.64;100.00;100034.88;4993553;28;20030;-83
2022/10/30 02:16:50;;;;;;;27.00;17.17;;;;;;;11.61;100.00;100042.84;4993208;28;20033;-83
2022/10/30 02:19:16;;;;;;;28.27;19.80;;;;;;;11.62;100.00;100041.91;4976118;28;20496;-83
2022/10/30 02:21:41;;;;;;;35.67;19.80;;;;;;;11.62;100.00;100021.03;4993345;28;20022;-83
2022/10/30 02:24:07;;;;;;;27.45;18.23;;;;;;;11.62;100.00;100026.25;4993331;28;20030;-83
2022/10/30 02:26:32;;;;;;;28.55;18.70;;;;;;;11.57;100.00;100019.56;4975773;28;20061;-83
2022/10/30 02:28:58;;;;;;;29.05;19.50;;;;;;;11.59;100.00;100010.75;4993339;28;20397;-83
2022/10/30 02:31:23;;;;;;;29.70;18.88;;;;;;;11.58;100.00;100022.09;4993470;28;20023;-84
2022/10/30 02:33:49;;;;;;;26.65;18.73;;;;;;;11.53;100.00;100011.03;4993146;28;20486;-84
2022/10/30 02:36:14;;;;;;;30.40;18.80;;;;;;;11.54;100.00;100024.91;4993364;28;20025;-83
2022/10/30 02:38:40;;;;;;;30.95;18.75;;;;;;;11.56;100.00;100020.47;4993310;28;20113;-83
2022/10/30 02:41:06;;;;;;;29.52;19.70;;;;;;;11.52;100.00;100025.00;4993239;28;20409;-83
2022/10/30 02:43:32;;;;;;;30.23;19.35;;;;;;;11.55;100.00;100031.84;4992916;28;20018;-83
2022/10/30 02:45:57;;;;;;;31.33;20.60;;;;;;;11.54;100.00;100028.34;4993008;28;20025;-83
2022/10/30 02:48:22;;;;;;;27.02;19.08;;;;;;;11.51;100.00;100020.69;4993524;28;20057;-83
2022/10/30 02:50:48;;;;;;;31.75;20.02;;;;;;;11.50;100.00;100021.59;4993122;28;20077;-83
2022/10/30 02:53:13;;;;;;;28.45;18.48;;;;;;;11.45;100.00;100015.72;4992578;28;20529;-83
2022/10/30 02:55:38;;;;;;;28.48;18.65;;;;;;;11.42;100.00;100013.28;4992719;28;20026;-83
2022/10/30 02:58:04;;;;;;;26.98;18.88;;;;;;;11.48;100.00;100026.03;4992840;28;20030;-83
2022/10/30 03:00:29;;;;;;;24.73;18.05;;;;;;;11.48;100.00;100020.81;4992784;28;20106;-83
2022/10/30 03:02:55;;;;;;;32.75;18.45;;;;;;;11.50;100.00;100016.38;4992913;28;20026;-83
2022/10/30 03:05:21;;;;;;;29.42;19.50;;;;;;;11.42;100.00;100008.91;4970751;28;20043;-83
2022/10/30 03:07:50;;;;;;;29.15;18.30;;;;;;;11.44;100.00;100014.88;4970763;28;20039;-83
2022/10/30 03:10:16;;;;;;;32.72;18.83;;;;;;;11.43;100.00;100022.78;4970826;28;20058;-83
2022/10/30 03:12:42;;;;;;;27.98;18.10;;;;;;;11.47;100.00;100029.56;4970665;28;20035;-83
2022/10/30 03:15:08;;;;;;;35.60;19.17;;;;;;;11.45;100.00;100034.00;4970911;28;20038;-83
2022/10/30 03:17:33;;;;;;;30.42;19.48;;;;;;;11.38;100.00;100009.97;4970691;28;20118;-83
2022/10/30 03:19:58;;;;;;;30.90;19.63;;;;;;;11.45;100.00;100034.84;4970706;28;20478;-83
2022/10/30 03:22:24;;;;;;;31.15;19.88;;;;;;;11.41;100.00;100024.59;4970979;28;20043;-83
2022/10/30 03:24:49;;;;;;;30.77;19.85;;;;;;;11.37;100.00;100017.81;4970533;28;20383;-83
2022/10/30 03:27:14;;;;;;;30.45;19.95;;;;;;;11.40;100.00;100028.13;4970760;28;20081;-83
2022/10/30 03:29:40;;;;;;;29.88;18.73;;;;;;;11.39;100.00;100019.47;4954288;28;20089;-83
2022/10/30 03:32:11;;;;;;;28.60;19.00;;;;;;;11.37;100.00;100023.03;4970718;28;20038;-83
2022/10/30 03:34:37;;;;;;;24.05;18.25;;;;;;;11.31;100.00;100011.13;4954156;28;20035;-84
2022/10/30 03:37:03;;;;;;;27.80;18.65;;;;;;;11.28;100.00;100011.25;4987750;28;20049;-83
2022/10/30 03:39:28;;;;;;;46.38;26.90;;;;;;;11.29;100.00;100012.94;4992391;28;20471;-83
2022/10/30 03:41:53;;;;;;;54.72;35.42;;;;;;;11.36;100.00;100023.97;4992180;28;20041;-83
2022/10/30 03:44:19;;;;;;;42.35;28.05;;;;;;;11.33;100.00;100018.88;4992185;28;20434;-83
2022/10/30 03:46:44;;;;;;;44.58;27.77;;;;;;;11.24;100.00;100005.31;4974776;28;20029;-83
2022/10/30 03:49:09;;;;;;;48.00;29.77;;;;;;;11.28;100.00;100007.81;4992482;28;20058;-83
2022/10/30 03:51:35;;;;;;;33.22;21.92;;;;;;;11.34;100.00;100013.63;4992076;28;20409;-83
2022/10/30 03:54:00;;;;;;;25.45;18.83;;;;;;;11.37;100.00;100020.44;4974737;28;20134;-83
2022/10/30 03:56:25;;;;;;;30.60;20.27;;;;;;;11.38;100.00;100020.38;4992449;28;20018;-84
2022/10/30 03:58:51;;;;;;;27.92;20.00;;;;;;;11.36;100.00;100013.53;4992078;28;20070;-83
2022/10/30 04:01:16;;;;;;;28.50;18.73;;;;;;;11.36;100.00;100009.16;4975022;28;20038;-83
2022/10/30 04:03:42;;;;;;;26.95;18.40;;;;;;;11.37;100.00;100023.03;4992071;28;20030;-83
2022/10/30 04:06:07;;;;;;;26.15;17.52;;;;;;;11.29;100.00;100015.56;4993726;28;20112;-83
2022/10/30 04:08:33;;;;;;;26.42;17.55;;;;;;;11.31;100.00;100018.97;4996037;28;20071;-83
2022/10/30 04:10:58;;;;;;;24.83;17.00;;;;;;;11.27;100.00;100017.41;4995666;28;20096;-83
2022/10/30 04:13:24;;;;;;;29.58;17.85;;;;;;;11.27;100.00;100016.56;4995758;28;20034;-83
2022/10/30 04:15:49;;;;;;;29.65;18.27;;;;;;;11.26;100.00;100015.72;4995764;28;20024;-83
2022/10/30 04:18:16;;;;;;;35.78;20.52;;;;;;;11.23;100.00;100006.25;4995860;28;20029;-83
2022/10/30 04:20:42;;;;;;;32.03;19.65;;;;;;;11.31;100.00;100018.13;4995733;28;20023;-83
2022/10/30 04:23:13;;;;;;;29.75;19.58;;;;;;;11.32;100.00;100010.22;4995680;28;20105;-83
2022/10/30 04:25:38;;;;;;;31.77;19.85;;;;;;;11.26;100.00;99997.47;4995474;28;20026;-83
2022/10/30 04:28:04;;;;;;;30.48;18.98;;;;;;;11.31;100.00;99995.47;4995570;28;20022;-85
2022/10/30 04:30:34;;;;;;;32.70;18.92;;;;;;;11.26;100.00;99987.03;4995521;28;20018;-84
2022/10/30 04:33:00;;;;;;;33.08;20.27;;;;;;;11.34;100.00;100004.94;4995347;28;20022;-83
2022/10/30 04:35:29;;;;;;;29.08;18.75;;;;;;;11.26;100.00;100000.06;4978070;28;20030;-83
2022/10/30 04:38:14;;;;;;;28.60;19.52;;;;;;;11.23;100.00;99997.59;4995220;28;20065;-83
2022/10/30 04:40:42;;;;;;;27.05;18.60;;;;;;;11.14;100.00;99987.56;4995358;28;20014;-83
2022/10/30 04:43:08;;;;;;;29.70;17.75;;;;;;;11.17;100.00;99995.25;4995382;28;20030;-84
2022/10/30 04:45:34;;;;;;;31.52;18.88;;;;;;;11.14;100.00;99990.16;4995387;28;20089;-83
2022/10/30 04:48:20;;;;;;;34.50;19.60;;;;;;;11.12;100.00;99990.22;4995037;28;20447;-83
2022/10/30 04:50:45;;;;;;;30.83;17.80;;;;;;;11.05;100.00;99978.38;4994528;28;20034;-83
2022/10/30 04:53:17;;;;;;;28.73;18.50;;;;;;;11.05;100.00;99982.75;4995151;28;20046;-84
2022/10/30 04:55:43;;;;;;;30.85;18.58;;;;;;;11.03;100.00;99989.78;4977571;28;20418;-84
2022/10/30 04:58:09;;;;;;;25.73;16.98;;;;;;;11.03;100.00;99989.78;4995128;28;20027;-84
2022/10/30 05:00:35;;;;;;;23.55;16.73;;;;;;;10.95;100.00;99977.91;4977571;28;20373;-84
2022/10/30 05:03:01;;;;;;;39.40;21.48;;;;;;;10.96;100.00;99982.22;4994666;28;20077;-84
2022/10/30 05:05:30;;;;;;;32.45;20.30;;;;;;;10.96;100.00;99981.38;4994818;28;20030;-84
2022/10/30 05:07:56;;;;;;;26.88;18.67;;;;;;;10.85;100.00;99971.41;4977332;28;20065;-84
2022/10/30 05:10:21;;;;;;;32.90;20.92;;;;;;;10.90;100.00;99984.25;4994784;28;20018;-84
2022/10/30 05:12:46;;;;;;;32.35;23.15;;;;;;;10.87;100.00;99992.19;4994692;28;20069;-84
2022/10/30 05:15:13;;;;;;;35.10;21.50;;;;;;;10.79;100.00;99984.72;4994848;28;20054;-84
2022/10/30 05:17:39;;;;;;;28.90;19.10;;;;;;;10.84;100.00;99990.56;4993369;28;20355;-84
2022/10/30 05:20:06;;;;;;;30.17;20.80;;;;;;;10.85;100.00;99991.41;4994837;28;20023;-83
2022/10/30 05:22:31;;;;;;;30.75;19.38;;;;;;;10.84;100.00;99989.72;4977158;28;20038;-83
2022/10/30 05:24:56;;;;;;;28.92;19.38;;;;;;;10.83;100.00;99993.22;4994431;28;20022;-83
2022/10/30 05:27:22;;;;;;;32.00;19.88;;;;;;;10.86;100.00;99996.53;4994590;28;20026;-84
2022/10/30 05:29:47;;;;;;;29.23;19.40;;;;;;;10.76;100.00;99984.81;4994299;28;20465;-84
2022/10/30 05:32:13;;;;;;;32.53;19.85;;;;;;;10.87;100.00;99998.25;4994505;28;20395;-84
2022/10/30 05:34:38;;;;;;;28.80;18.00;;;;;;;10.79;100.00;99984.72;4994335;28;20022;-82
2022/10/30 05:37:03;;;;;;;24.60;17.15;;;;;;;10.82;100.00;99994.97;4994289;28;20029;-84
2022/10/30 05:39:29;;;;;;;28.45;18.25;;;;;;;10.81;100.00;99998.50;4994425;28;20029;-84
2022/10/30 05:41:54;;;;;;;26.83;16.00;;;;;;;10.77;100.00;99988.28;4994132;28;20635;-84
2022/10/30 05:44:19;;;;;;;28.70;17.45;;;;;;;10.76;100.00;99995.25;4994197;28;20046;-84
2022/10/30 05:46:45;;;;;;;20.98;16.27;;;;;;;10.71;100.00;99992.84;4993998;28;20037;-84
2022/10/30 05:49:10;;;;;;;26.95;16.90;;;;;;;10.72;100.00;99991.91;4993968;28;20025;-84
2022/10/30 05:51:36;;;;;;;20.05;14.63;;;;;;;10.72;100.00;99993.69;4976685;28;20026;-84
2022/10/30 05:54:01;;;;;;;22.45;15.80;;;;;;;10.77;100.00;99999.53;4993728;28;20390;-85
2022/10/30 05:56:26;;;;;;;20.50;15.13;;;;;;;10.82;100.00;100017.59;4994062;28;20101;-84
2022/10/30 05:58:52;;;;;;;23.65;15.27;;;;;;;10.73;100.00;99993.59;4976289;28;20022;-85
2022/10/30 06:01:17;;;;;;;22.70;16.13;;;;;;;10.84;100.00;100006.19;4993888;28;20015;-85
2022/10/30 06:03:43;;;;;;;24.30;14.73;;;;;;;10.87;100.00;100013.03;4993473;28;20073;-85
2022/10/30 06:06:09;;;;;;;26.77;15.48;;;;;;;10.85;100.00;100014.88;4993964;28;20042;-85
2022/10/30 06:08:34;;;;;;;30.92;16.25;;;;;;;10.90;100.00;100013.75;4993901;28;20482;-85
2022/10/30 06:10:59;;;;;;;26.92;16.75;;;;;;;10.95;100.00;100021.38;4993590;28;20414;-85
2022/10/30 06:13:25;;;;;;;26.60;16.15;;;;;;;10.96;100.00;100021.31;4976242;28;20061;-84
2022/10/30 06:15:55;;;;;;;20.75;14.82;;;;;;;10.99;100.00;100023.78;4993397;28;20030;-85
2022/10/30 06:18:20;;;;;;;20.75;15.30;;;;;;;10.96;100.00;100008.28;4993472;28;20026;-85
2022/10/30 06:20:46;;;;;;;23.27;16.02;;;;;;;11.05;100.00;100016.63;4975855;28;20084;-85
2022/10/30 06:23:11;;;;;;;23.33;15.15;;;;;;;11.06;100.00;100006.13;4976138;28;20022;-85
2022/10/30 06:25:37;;;;;;;24.48;16.38;;;;;;;11.31;100.00;100029.38;4993858;28;20029;-85
2022/10/30 06:28:03;;;;;;;24.70;16.63;;;;;;;11.45;100.00;100016.56;4975554;28;20530;-85
2022/10/30 06:30:28;;;;;;;25.20;18.00;;;;;;;11.66;100.00;100020.00;4993311;28;20029;-85
2022/10/30 06:33:02;;;;;;;23.65;17.63;;;;;;;11.80;100.00;100011.56;4993016;28;20027;-85
2022/10/30 06:35:28;;;;;;;26.88;16.88;;;;;;;12.06;100.00;100009.53;4993330;28;20027;-85
2022/10/30 06:37:55;;;;;;;23.05;15.45;;;;;;;12.35;100.00;100016.81;4993075;28;20057;-85
2022/10/30 06:40:21;;;;;;;23.23;15.20;;;;;;;12.65;100.00;100018.88;4975746;28;20469;-85
2022/10/30 06:42:49;;;;;;;24.13;14.65;;;;;;;12.99;100.00;100029.31;4992840;28;20449;-86
2022/10/30 06:45:16;;;;;;;26.33;15.73;;;;;;;13.31;100.00;100028.63;4993030;28;20104;-86
2022/10/30 06:47:41;;;;;;;23.33;15.02;;;;;;;13.77;100.00;100021.81;4975695;28;20025;-85
2022/10/30 06:50:10;;;;;;;23.25;15.27;;;;;;;14.73;100.00;100034.81;4992628;28;20030;-85
2022/10/30 06:52:35;;;;;;;21.80;15.57;;;;;;;15.20;100.00;100038.19;4975538;28;20053;-86
2022/10/30 06:55:01;;;;;;;20.83;14.02;;;;;;;15.25;100.00;100030.91;4975418;28;20494;-85
2022/10/30 06:57:27;;;;;;;17.98;12.88;;;;;;;15.45;100.00;100038.41;4992923;28;20555;-85
2022/10/30 06:59:52;;;;;;;20.50;13.02;;;;;;;16.18;100.00;100040.94;4992684;28;20528;-85
2022/10/30 07:02:17;;;;;;;17.30;12.80;;;;;;;16.80;95.50;100039.59;4992968;28;20026;-85
2022/10/30 07:04:44;;;;;;;23.75;14.23;;;;;;;16.78;94.97;100050.25;4972200;28;20114;-85
2022/10/30 07:07:10;;;;;;;26.05;14.00;;;;;;;16.56;95.18;100048.16;4971874;28;20026;-85
2022/10/30 07:09:35;;;;;;;21.45;14.07;;;;;;;16.48;95.93;100050.44;4992602;28;20065;-86
2022/10/30 07:12:01;;;;;;;21.60;13.88;;;;;;;16.37;96.43;100039.75;4992542;28;20023;-86
2022/10/30 07:14:26;;;;;;;17.38;13.30;;;;;;;16.36;97.26;100046.78;4973883;28;20062;-85
2022/10/30 07:16:53;;;;;;;21.98;14.00;;;;;;;16.46;97.09;100047.03;4992669;28;20018;-86
2022/10/30 07:19:19;;;;;;;19.65;13.82;;;;;;;16.56;97.75;100044.66;4973109;28;20504;-86
2022/10/30 07:21:44;;;;;;;22.02;13.45;;;;;;;16.57;97.91;100041.09;4971986;28;20110;-86
2022/10/30 07:24:09;;;;;;;21.25;11.80;;;;;;;16.66;97.56;100049.22;4988795;28;20370;-86
2022/10/30 07:26:36;;;;;;;18.17;12.25;;;;;;;16.66;96.70;100046.59;4992831;28;20023;-85
2022/10/30 07:29:03;;;;;;;36.90;26.85;;;;;;;16.68;96.57;100044.69;4971492;28;20054;-86
2022/10/30 07:31:28;;;;;;;84.10;64.75;;;;;;;16.67;96.12;100053.53;4974226;28;20034;-85
2022/10/30 07:33:54;;;;;;;31.15;22.67;;;;;;;16.70;95.97;100061.22;4971824;28;20386;-87
2022/10/30 07:36:19;;;;;;;30.55;22.35;;;;;;;16.62;95.02;100039.84;4989059;28;20031;-87
2022/10/30 07:38:46;;;;;;;23.60;16.88;;;;;;;16.72;94.06;100037.44;4992568;28;20106;-87
2022/10/30 07:41:11;;;;;;;21.08;16.13;;;;;;;16.82;93.79;100041.22;4994228;28;20030;-87
2022/10/30 07:43:37;;;;;;;23.48;13.68;;;;;;;17.08;93.46;100049.16;4996504;28;20027;-87
2022/10/30 07:46:02;;;;;;;21.95;12.10;;;;;;;17.17;93.72;100033.56;4975463;28;20030;-87
2022/10/30 07:48:27;;;;;;;15.02;11.32;;;;;;;17.43;93.36;100046.75;4995258;28;20117;-86
2022/10/30 07:50:53;;;;;;;21.52;10.45;;;;;;;17.65;92.13;100032.91;4996232;28;20030;-86
2022/10/30 07:53:18;;;;;;;15.25;9.35;;;;;;;17.93;91.16;100035.34;4996167;28;20133;-86
2022/10/30 07:55:43;;;;;;;15.90;9.48;;;;;;;18.07;89.11;100044.88;4995254;28;20030;-87
2022/10/30 07:58:09;;;;;;;15.10;9.38;;;;;;;17.94;89.18;100049.34;4994654;28;20072;-86
2022/10/30 08:00:34;;;;;;;15.75;9.98;;;;;;;17.64;88.57;100036.50;4995023;28;20533;-87
2022/10/30 08:03:00;;;;;;;17.58;9.55;;;;;;;17.49;89.39;100029.66;4994667;28;20026;-86
2022/10/30 08:05:25;;;;;;;18.92;9.23;;;;;;;17.43;90.47;100041.47;4993262;28;20023;-86
2022/10/30 08:07:51;;;;;;;17.70;9.02;;;;;;;17.36;91.56;100027.03;4994582;28;20057;-86
2022/10/30 08:10:16;;;;;;;16.60;9.98;;;;;;;17.24;91.66;100023.47;4987676;28;20026;-86
2022/10/30 08:12:43;;;;;;;12.77;9.52;;;;;;;17.15;92.40;100021.44;4975230;28;20463;-86
2022/10/30 08:15:09;;;;;;;15.32;9.80;;;;;;;17.03;92.99;100014.41;4974898;28;20027;-86
2022/10/30 08:17:43;;;;;;;22.13;10.75;;;;;;;16.93;93.71;100004.47;4957901;28;20053;-86
2022/10/30 08:20:10;;;;;;;18.50;9.82;;;;;;;17.01;93.86;100026.81;4975194;28;20394;-85
2022/10/30 08:22:46;;;;;;;17.25;10.40;;;;;;;16.89;94.46;100015.31;4975119;28;20577;-86
2022/10/30 08:25:11;;;;;;;15.55;9.93;;;;;;;16.84;95.16;100006.91;4974744;28;20113;-86
2022/10/30 08:27:36;;;;;;;13.95;9.98;;;;;;;16.76;96.24;100009.19;4974989;28;20109;-86
2022/10/30 08:30:02;;;;;;;13.50;9.88;;;;;;;16.71;96.97;100002.41;4974690;28;20462;-86
2022/10/30 08:32:28;;;;;;;14.43;9.68;;;;;;;16.84;97.49;100004.25;4974964;28;20023;-86
2022/10/30 08:34:53;;;;;;;13.13;9.57;;;;;;;17.02;97.72;100012.69;4978821;28;20429;-84
2022/10/30 08:37:18;;;;;;;17.65;11.55;;;;;;;17.17;97.33;100020.41;4964728;28;20034;-85
2022/10/30 08:39:44;;;;;;;17.45;11.77;;;;;;;17.24;96.94;100006.84;4977174;28;20023;-85
2022/10/30 08:42:09;;;;;;;16.92;11.43;;;;;;;17.36;96.86;100019.13;4954143;28;20074;-85
2022/10/30 08:44:34;;;;;;;17.92;11.55;;;;;;;17.36;96.84;100014.75;4973177;28;20469;-84
2022/10/30 08:47:00;;;;;;;19.23;11.68;;;;;;;17.40;96.68;100017.97;4957980;28;20042;-84
2022/10/30 08:49:25;;;;;;;14.63;11.93;;;;;;;17.45;96.79;100016.72;4970818;28;20015;-85
2022/10/30 08:51:51;;;;;;;19.10;11.95;;;;;;;17.51;96.53;100025.16;4955221;28;20029;-85
2022/10/30 08:54:16;;;;;;;16.58;11.65;;;;;;;17.46;96.51;100026.31;4924304;28;1129025;-86
2022/10/30 08:56:41;;;;;;;17.83;12.00;;;;;;;17.45;96.35;100021.16;4973152;28;20031;-85
2022/10/30 08:59:07;;;;;;;15.20;11.70;;;;;;;17.42;95.76;100021.38;4962177;28;20105;-85
2022/10/30 09:01:32;;;;;;;16.95;11.15;;;;;;;17.42;95.52;100029.25;4978337;28;20348;-85
2022/10/30 09:03:57;;;;;;;18.35;11.85;;;;;;;17.39;95.38;100030.31;4970296;28;20065;-84
2022/10/30 09:06:23;;;;;;;17.88;12.95;;;;;;;17.27;93.13;100023.25;4973424;28;21259;-87
2022/10/30 09:08:48;;;;;;;16.83;11.30;;;;;;;17.28;93.71;100021.47;4973657;28;20046;-84
2022/10/30 09:11:14;;;;;;;23.60;12.38;;;;;;;17.32;94.53;100030.81;4973564;28;20039;-84
2022/10/30 09:13:39;;;;;;;17.90;12.50;;;;;;;17.29;94.87;100033.69;4956410;28;20382;-84
2022/10/30 09:16:05;;;;;;;20.15;13.45;;;;;;;17.31;94.51;100029.97;4973685;28;20022;-80
2022/10/30 09:18:30;;;;;;;20.25;13.15;;;;;;;17.27;93.99;100019.78;4973863;28;20027;-80
2022/10/30 09:20:55;;;;;;;18.38;11.90;;;;;;;17.34;94.09;100023.69;4973271;28;20058;-80
2022/10/30 09:23:21;;;;;;;18.17;13.43;;;;;;;17.33;94.06;100020.22;4973786;28;20172;-81
2022/10/30 09:25:46;;;;;;;32.88;23.15;;;;;;;17.39;93.91;100014.50;4974349;28;20647;-84
2022/10/30 09:28:12;;;;;;;21.77;13.43;;;;;;;17.34;93.06;100008.72;4986973;28;20038;-84
2022/10/30 09:30:37;;;;;;;23.08;13.48;;;;;;;17.32;93.19;100012.41;4983225;28;20756;-83
2022/10/30 09:33:03;;;;;;;17.73;11.27;;;;;;;17.37;93.43;100007.69;4983387;28;20488;-84
2022/10/30 09:35:29;;;;;;;19.35;11.10;;;;;;;17.46;93.61;100013.16;4985000;28;20025;-84
2022/10/30 09:37:55;;;;;;;17.88;12.48;;;;;;;17.48;93.02;100004.28;4989638;28;20108;-84
2022/10/30 09:40:42;;;;;;;16.77;10.95;;;;;;;17.58;93.10;100011.44;4965376;28;20382;-84
2022/10/30 09:43:36;;;;;;;18.70;11.52;;;;;;;17.67;92.92;99999.44;4983589;28;20105;-84
2022/10/30 09:46:10;;;;;;;15.48;11.70;;;;;;;17.75;92.06;100002.41;4910525;29;20032;-84
2022/10/30 09:48:53;;;;;;;19.40;10.07;;;;;;;17.78;92.02;99996.91;4884640;29;20068;-84
2022/10/30 09:51:52;;;;;;;18.40;8.85;;;;;;;17.86;91.58;100001.63;4908290;29;20506;-83
2022/10/30 09:54:18;;;;;;;16.65;9.98;;;;;;;17.92;91.81;100003.84;4908681;29;20058;-82
2022/10/30 09:56:48;;;;;;;16.35;9.27;;;;;;;17.92;91.76;99990.66;4913186;29;20052;-84
2022/10/30 09:59:24;;;;;;;15.68;9.35;;;;;;;18.03;91.00;99995.97;4907777;29;20107;-83
2022/10/30 10:02:02;;;;;;;20.42;10.70;;;;;;;18.04;90.37;99983.66;4913130;29;20047;-85
2022/10/30 10:04:38;;;;;;;17.45;11.63;;;;;;;18.06;90.45;99973.84;4896685;29;20028;-84
2022/10/30 10:07:10;;;;;;;19.50;11.85;;;;;;;18.09;89.63;99978.91;4910360;29;20035;-87
2022/10/30 10:09:38;;;;;;;22.33;11.88;;;;;;;18.14;89.27;99968.84;4911409;29;20055;-84
2022/10/30 10:12:10;;;;;;;16.30;10.45;;;;;;;18.17;89.13;99976.56;4898187;29;20032;-83
2022/10/30 10:14:43;;;;;;;17.92;9.73;;;;;;;18.17;88.81;99968.63;4914260;29;20032;-83
2022/10/30 10:17:27;;;;;;;19.75;11.30;;;;;;;18.26;88.32;99969.75;4898147;29;20516;-84
2022/10/30 10:20:04;;;;;;;17.80;10.20;;;;;;;18.36;87.55;99974.22;4914201;29;20028;-84
2022/10/30 10:22:44;;;;;;;17.67;9.77;;;;;;;18.44;87.50;99976.31;4926914;29;20031;-83
2022/10/30 10:25:13;;;;;;;16.00;8.88;;;;;;;18.45;87.00;99964.78;4954580;29;20467;-83
2022/10/30 10:28:07;;;;;;;13.07;7.97;;;;;;;18.55;87.10;99965.81;4954808;29;20026;-84
2022/10/30 10:30:48;;;;;;;16.25;9.05;;;;;;;18.73;87.79;99981.25;4954642;29;20030;-85
2022/10/30 10:33:23;;;;;;;14.90;8.45;;;;;;;18.90;87.67;99983.44;4954469;29;20031;-84
2022/10/30 10:36:26;;;;;;;13.00;8.45;;;;;;;19.10;86.95;99981.94;4954631;29;20023;-84
2022/10/30 10:39:39;;;;;;;15.10;8.02;;;;;;;19.30;85.96;99985.66;4954358;29;20662;-84
2022/10/30 10:42:13;;;;;;;18.73;8.48;;;;;;;19.45;86.04;99981.84;4857582;29;20037;-84
2022/10/30 10:45:14;;;;;;;14.15;7.97;;;;;;;19.53;86.06;99976.78;4842476;29;20498;-83
2022/10/30 10:48:05;;;;;;;15.68;9.23;;;;;;;19.51;83.15;99965.53;4857955;29;20121;-83
2022/10/30 10:50:45;;;;;;;12.57;7.75;;;;;;;19.47;83.33;99963.22;4869384;29;20386;-84
2022/10/30 10:53:21;;;;;;;18.90;8.07;;;;;;;19.47;84.05;99957.94;4875951;29;20045;-84
2022/10/30 10:55:50;;;;;;;7.88;7.05;;;;;;;19.49;84.39;99948.94;4876277;29;20266;-84
2022/10/30 10:58:41;;;;;;;14.15;8.55;;;;;;;19.62;84.67;99962.03;4876301;29;20033;-84
2022/10/30 11:01:14;;;;;;;15.68;9.35;;;;;;;19.55;82.81;99943.19;4875963;29;20045;-84
2022/10/30 11:03:56;;;;;;;17.15;9.00;;;;;;;19.59;82.83;99963.13;4875994;29;20041;-84
2022/10/30 11:06:33;;;;;;;13.77;8.68;;;;;;;19.48;83.80;99949.91;4873625;29;20033;-84
2022/10/30 11:09:20;;;;;;;14.60;8.52;;;;;;;19.57;83.93;99958.91;4875738;29;20505;-84
2022/10/30 11:11:48;;;;;;;10.40;7.88;;;;;;;19.67;83.74;99958.06;4875938;29;20033;-85
2022/10/30 11:14:27;;;;;;;17.48;8.75;;;;;;;19.75;83.57;99936.31;4875659;29;20052;-85
2022/10/30 11:17:17;;;;;;;18.83;8.88;;;;;;;19.97;82.92;99955.72;4961213;28;20444;-86